sensor_id;sensor_type;location;lat;lon;timestamp;P1;durP1;ratioP1;P2;durP2;ratioP2
16577;SDS011;8401;52.528;13.340;2023-05-10T00:00:33;5.10;;;4.60;;
16577;SDS011;8401;52.528;13.340;2023-05-10T00:02:59;8.37;;;4.83;;
16577;SDS011;8401;52.528;13.340;2023-05-10T00:05:24;5.10;;;4.13;;
16577;SDS011;8401;52.528;13.340;2023-05-10T00:07:50;7.90;;;5.13;;
16577;SDS011;8401;52.528;13.340;2023-05-10T00:10:15;6.73;;;4.63;;
16577;SDS011;8401;52.528;13.340;2023-05-10T00:12:41;5.30;;;4.30;;
16577;SDS011;8401;52.528;13.340;2023-05-10T00:15:07;6.17;;;4.67;;
16577;SDS011;8401;52.528;13.340;2023-05-10T00:17:33;6.87;;;5.20;;
16577;SDS011;8401;52.528;13.340;2023-05-10T00:19:59;7.63;;;4.83;;
16577;SDS011;8401;52.528;13.340;2023-05-10T00:22:25;7.17;;;5.03;;
16577;SDS011;8401;52.528;13.340;2023-05-10T00:24:51;7.27;;;4.90;;
16577;SDS011;8401;52.528;13.340;2023-05-10T00:27:16;9.27;;;4.90;;
16577;SDS011;8401;52.528;13.340;2023-05-10T00:29:42;11.90;;;4.63;;
16577;SDS011;8401;52.528;13.340;2023-05-10T00:32:07;7.00;;;4.67;;
16577;SDS011;8401;52.528;13.340;2023-05-10T00:34:33;6.20;;;4.50;;
16577;SDS011;8401;52.528;13.340;2023-05-10T00:36:59;7.10;;;4.73;;
16577;SDS011;8401;52.528;13.340;2023-05-10T00:39:24;5.03;;;4.20;;
16577;SDS011;8401;52.528;13.340;2023-05-10T00:41:51;6.60;;;4.67;;
16577;SDS011;8401;52.528;13.340;2023-05-10T00:44:17;6.37;;;4.50;;
16577;SDS011;8401;52.528;13.340;2023-05-10T00:46:43;6.80;;;4.83;;
16577;SDS011;8401;52.528;13.340;2023-05-10T00:49:09;5.63;;;5.10;;
16577;SDS011;8401;52.528;13.340;2023-05-10T00:51:36;6.40;;;4.90;;
16577;SDS011;8401;52.528;13.340;2023-05-10T00:54:02;8.50;;;5.23;;
16577;SDS011;8401;52.528;13.340;2023-05-10T00:56:27;6.20;;;5.03;;
16577;SDS011;8401;52.528;13.340;2023-05-10T00:58:54;6.03;;;4.90;;
16577;SDS011;8401;52.528;13.340;2023-05-10T01:01:20;7.40;;;5.07;;
16577;SDS011;8401;52.528;13.340;2023-05-10T01:03:46;7.00;;;5.03;;
16577;SDS011;8401;52.528;13.340;2023-05-10T01:06:12;5.90;;;5.20;;
16577;SDS011;8401;52.528;13.340;2023-05-10T01:08:38;7.23;;;5.43;;
16577;SDS011;8401;52.528;13.340;2023-05-10T01:11:04;7.93;;;5.20;;
16577;SDS011;8401;52.528;13.340;2023-05-10T01:13:33;7.57;;;5.70;;
16577;SDS011;8401;52.528;13.340;2023-05-10T01:16:02;6.07;;;4.77;;
16577;SDS011;8401;52.528;13.340;2023-05-10T01:18:29;6.63;;;4.93;;
16577;SDS011;8401;52.528;13.340;2023-05-10T01:21:07;6.07;;;5.10;;
16577;SDS011;8401;52.528;13.340;2023-05-10T01:35:10;5.80;;;5.00;;
16577;SDS011;8401;52.528;13.340;2023-05-10T01:40:47;6.20;;;4.73;;
16577;SDS011;8401;52.528;13.340;2023-05-10T01:43:26;5.40;;;4.83;;
16577;SDS011;8401;52.528;13.340;2023-05-10T01:46:17;4.57;;;3.13;;
16577;SDS011;8401;52.528;13.340;2023-05-10T01:48:48;5.67;;;4.90;;
16577;SDS011;8401;52.528;13.340;2023-05-10T01:51:23;5.63;;;4.47;;
16577;SDS011;8401;52.528;13.340;2023-05-10T01:53:51;6.30;;;4.87;;
16577;SDS011;8401;52.528;13.340;2023-05-10T01:56:22;6.80;;;5.13;;
16577;SDS011;8401;52.528;13.340;2023-05-10T01:58:51;6.57;;;4.83;;
16577;SDS011;8401;52.528;13.340;2023-05-10T02:01:18;5.83;;;5.23;;
16577;SDS011;8401;52.528;13.340;2023-05-10T02:03:46;7.97;;;4.97;;
16577;SDS011;8401;52.528;13.340;2023-05-10T02:06:12;6.37;;;5.23;;
16577;SDS011;8401;52.528;13.340;2023-05-10T02:08:39;8.30;;;4.87;;
16577;SDS011;8401;52.528;13.340;2023-05-10T02:11:06;5.43;;;4.43;;
16577;SDS011;8401;52.528;13.340;2023-05-10T02:13:32;5.90;;;4.63;;
16577;SDS011;8401;52.528;13.340;2023-05-10T02:16:01;8.67;;;4.63;;
16577;SDS011;8401;52.528;13.340;2023-05-10T02:18:29;5.70;;;4.67;;
16577;SDS011;8401;52.528;13.340;2023-05-10T02:20:58;6.60;;;4.30;;
16577;SDS011;8401;52.528;13.340;2023-05-10T02:23:26;6.40;;;4.83;;
16577;SDS011;8401;52.528;13.340;2023-05-10T02:25:52;7.23;;;5.27;;
16577;SDS011;8401;52.528;13.340;2023-05-10T02:28:21;7.40;;;5.37;;
16577;SDS011;8401;52.528;13.340;2023-05-10T02:30:49;9.53;;;5.77;;
16577;SDS011;8401;52.528;13.340;2023-05-10T02:33:16;5.53;;;4.77;;
16577;SDS011;8401;52.528;13.340;2023-05-10T02:35:42;6.20;;;4.23;;
16577;SDS011;8401;52.528;13.340;2023-05-10T02:38:08;6.70;;;4.90;;
16577;SDS011;8401;52.528;13.340;2023-05-10T02:40:36;5.90;;;5.13;;
16577;SDS011;8401;52.528;13.340;2023-05-10T02:43:03;6.93;;;5.00;;
16577;SDS011;8401;52.528;13.340;2023-05-10T02:45:31;7.30;;;4.97;;
16577;SDS011;8401;52.528;13.340;2023-05-10T02:47:59;6.60;;;4.90;;
16577;SDS011;8401;52.528;13.340;2023-05-10T02:50:25;7.13;;;4.60;;
16577;SDS011;8401;52.528;13.340;2023-05-10T02:52:54;6.73;;;4.97;;
16577;SDS011;8401;52.528;13.340;2023-05-10T02:55:31;7.67;;;5.20;;
16577;SDS011;8401;52.528;13.340;2023-05-10T02:58:00;7.90;;;5.40;;
16577;SDS011;8401;52.528;13.340;2023-05-10T03:00:27;8.10;;;4.57;;
16577;SDS011;8401;52.528;13.340;2023-05-10T03:02:53;6.70;;;3.97;;
16577;SDS011;8401;52.528;13.340;2023-05-10T03:05:19;6.70;;;4.83;;
16577;SDS011;8401;52.528;13.340;2023-05-10T03:07:45;6.63;;;4.60;;
16577;SDS011;8401;52.528;13.340;2023-05-10T03:10:11;5.87;;;4.10;;
16577;SDS011;8401;52.528;13.340;2023-05-10T03:21:03;7.43;;;4.47;;
16577;SDS011;8401;52.528;13.340;2023-05-10T03:23:35;7.17;;;4.70;;
16577;SDS011;8401;52.528;13.340;2023-05-10T03:26:05;5.20;;;4.20;;
16577;SDS011;8401;52.528;13.340;2023-05-10T03:28:32;5.00;;;4.20;;
16577;SDS011;8401;52.528;13.340;2023-05-10T03:31:00;5.93;;;4.03;;
16577;SDS011;8401;52.528;13.340;2023-05-10T03:33:27;5.40;;;4.30;;
16577;SDS011;8401;52.528;13.340;2023-05-10T03:35:53;6.90;;;4.70;;
16577;SDS011;8401;52.528;13.340;2023-05-10T03:38:18;7.83;;;4.47;;
16577;SDS011;8401;52.528;13.340;2023-05-10T03:40:44;8.20;;;4.80;;
16577;SDS011;8401;52.528;13.340;2023-05-10T03:43:10;8.43;;;4.50;;
16577;SDS011;8401;52.528;13.340;2023-05-10T03:45:35;6.93;;;4.23;;
16577;SDS011;8401;52.528;13.340;2023-05-10T03:48:01;6.50;;;4.40;;
16577;SDS011;8401;52.528;13.340;2023-05-10T03:50:27;5.13;;;4.23;;
16577;SDS011;8401;52.528;13.340;2023-05-10T03:52:53;6.63;;;4.13;;
16577;SDS011;8401;52.528;13.340;2023-05-10T03:55:19;4.57;;;4.10;;
16577;SDS011;8401;52.528;13.340;2023-05-10T03:57:44;5.17;;;4.07;;
16577;SDS011;8401;52.528;13.340;2023-05-10T04:00:10;6.63;;;4.17;;
16577;SDS011;8401;52.528;13.340;2023-05-10T04:02:36;6.10;;;4.27;;
16577;SDS011;8401;52.528;13.340;2023-05-10T04:05:02;5.37;;;4.10;;
16577;SDS011;8401;52.528;13.340;2023-05-10T04:07:28;5.80;;;4.27;;
16577;SDS011;8401;52.528;13.340;2023-05-10T04:09:54;6.13;;;4.23;;
16577;SDS011;8401;52.528;13.340;2023-05-10T04:12:19;6.23;;;4.00;;
16577;SDS011;8401;52.528;13.340;2023-05-10T04:14:45;5.00;;;3.80;;
16577;SDS011;8401;52.528;13.340;2023-05-10T04:17:11;7.57;;;5.00;;
16577;SDS011;8401;52.528;13.340;2023-05-10T04:19:36;11.87;;;4.63;;
16577;SDS011;8401;52.528;13.340;2023-05-10T04:22:02;5.43;;;3.90;;
16577;SDS011;8401;52.528;13.340;2023-05-10T04:24:28;5.93;;;4.93;;
16577;SDS011;8401;52.528;13.340;2023-05-10T04:26:54;5.07;;;4.23;;
16577;SDS011;8401;52.528;13.340;2023-05-10T04:29:20;6.93;;;4.50;;
16577;SDS011;8401;52.528;13.340;2023-05-10T04:31:46;6.87;;;3.60;;
16577;SDS011;8401;52.528;13.340;2023-05-10T04:34:11;8.23;;;4.03;;
16577;SDS011;8401;52.528;13.340;2023-05-10T04:36:37;5.67;;;3.80;;
16577;SDS011;8401;52.528;13.340;2023-05-10T04:39:03;5.93;;;3.80;;
16577;SDS011;8401;52.528;13.340;2023-05-10T04:41:29;8.03;;;4.30;;
16577;SDS011;8401;52.528;13.340;2023-05-10T04:43:55;5.83;;;4.00;;
16577;SDS011;8401;52.528;13.340;2023-05-10T04:46:20;6.33;;;3.57;;
16577;SDS011;8401;52.528;13.340;2023-05-10T04:48:46;6.43;;;4.10;;
16577;SDS011;8401;52.528;13.340;2023-05-10T04:51:12;5.23;;;3.70;;
16577;SDS011;8401;52.528;13.340;2023-05-10T04:53:38;5.60;;;4.03;;
16577;SDS011;8401;52.528;13.340;2023-05-10T04:56:03;6.60;;;4.20;;
16577;SDS011;8401;52.528;13.340;2023-05-10T04:58:29;6.03;;;3.57;;
16577;SDS011;8401;52.528;13.340;2023-05-10T05:00:55;5.37;;;3.67;;
16577;SDS011;8401;52.528;13.340;2023-05-10T05:03:21;5.93;;;3.87;;
16577;SDS011;8401;52.528;13.340;2023-05-10T05:05:47;4.90;;;3.90;;
16577;SDS011;8401;52.528;13.340;2023-05-10T05:08:13;5.50;;;3.60;;
16577;SDS011;8401;52.528;13.340;2023-05-10T05:10:38;7.13;;;4.10;;
16577;SDS011;8401;52.528;13.340;2023-05-10T05:13:04;6.50;;;4.20;;
16577;SDS011;8401;52.528;13.340;2023-05-10T05:15:30;6.33;;;3.90;;
16577;SDS011;8401;52.528;13.340;2023-05-10T05:17:56;6.60;;;3.73;;
16577;SDS011;8401;52.528;13.340;2023-05-10T05:20:21;4.60;;;3.60;;
16577;SDS011;8401;52.528;13.340;2023-05-10T05:22:47;5.37;;;3.70;;
16577;SDS011;8401;52.528;13.340;2023-05-10T05:25:13;6.27;;;3.17;;
16577;SDS011;8401;52.528;13.340;2023-05-10T05:27:40;6.33;;;3.70;;
16577;SDS011;8401;52.528;13.340;2023-05-10T05:30:05;5.03;;;3.07;;
16577;SDS011;8401;52.528;13.340;2023-05-10T05:32:32;4.50;;;3.53;;
16577;SDS011;8401;52.528;13.340;2023-05-10T05:34:58;5.67;;;3.63;;
16577;SDS011;8401;52.528;13.340;2023-05-10T05:37:23;7.77;;;4.03;;
16577;SDS011;8401;52.528;13.340;2023-05-10T05:39:49;6.77;;;3.20;;
16577;SDS011;8401;52.528;13.340;2023-05-10T05:42:15;6.00;;;3.37;;
16577;SDS011;8401;52.528;13.340;2023-05-10T05:44:42;5.80;;;3.60;;
16577;SDS011;8401;52.528;13.340;2023-05-10T05:47:08;7.77;;;3.63;;
16577;SDS011;8401;52.528;13.340;2023-05-10T05:49:34;6.80;;;3.50;;
16577;SDS011;8401;52.528;13.340;2023-05-10T05:52:00;5.13;;;3.17;;
16577;SDS011;8401;52.528;13.340;2023-05-10T05:54:26;5.50;;;3.53;;
16577;SDS011;8401;52.528;13.340;2023-05-10T05:56:56;8.77;;;3.03;;
16577;SDS011;8401;52.528;13.340;2023-05-10T05:59:23;6.60;;;3.50;;
16577;SDS011;8401;52.528;13.340;2023-05-10T06:01:48;7.60;;;2.87;;
16577;SDS011;8401;52.528;13.340;2023-05-10T06:04:14;6.50;;;3.00;;
16577;SDS011;8401;52.528;13.340;2023-05-10T06:06:40;7.10;;;2.90;;
16577;SDS011;8401;52.528;13.340;2023-05-10T06:09:05;5.53;;;3.13;;
16577;SDS011;8401;52.528;13.340;2023-05-10T06:11:31;5.77;;;3.13;;
16577;SDS011;8401;52.528;13.340;2023-05-10T06:13:57;5.90;;;2.90;;
16577;SDS011;8401;52.528;13.340;2023-05-10T06:16:23;4.10;;;2.13;;
16577;SDS011;8401;52.528;13.340;2023-05-10T06:18:49;4.27;;;3.10;;
16577;SDS011;8401;52.528;13.340;2023-05-10T06:21:14;4.87;;;2.83;;
16577;SDS011;8401;52.528;13.340;2023-05-10T06:23:41;3.20;;;2.80;;
16577;SDS011;8401;52.528;13.340;2023-05-10T06:26:07;4.60;;;2.50;;
16577;SDS011;8401;52.528;13.340;2023-05-10T06:28:32;4.90;;;2.50;;
16577;SDS011;8401;52.528;13.340;2023-05-10T06:30:58;5.87;;;2.83;;
16577;SDS011;8401;52.528;13.340;2023-05-10T06:33:24;7.33;;;2.90;;
16577;SDS011;8401;52.528;13.340;2023-05-10T06:35:50;3.73;;;2.60;;
16577;SDS011;8401;52.528;13.340;2023-05-10T06:38:16;5.53;;;2.73;;
16577;SDS011;8401;52.528;13.340;2023-05-10T06:40:42;4.43;;;2.63;;
16577;SDS011;8401;52.528;13.340;2023-05-10T06:43:08;3.73;;;2.63;;
16577;SDS011;8401;52.528;13.340;2023-05-10T06:45:34;5.97;;;2.50;;
16577;SDS011;8401;52.528;13.340;2023-05-10T06:47:59;4.13;;;2.70;;
16577;SDS011;8401;52.528;13.340;2023-05-10T06:50:26;3.23;;;2.30;;
16577;SDS011;8401;52.528;13.340;2023-05-10T06:52:51;3.33;;;2.63;;
16577;SDS011;8401;52.528;13.340;2023-05-10T06:55:17;4.37;;;2.13;;
16577;SDS011;8401;52.528;13.340;2023-05-10T06:57:43;4.67;;;2.40;;
16577;SDS011;8401;52.528;13.340;2023-05-10T07:00:09;5.53;;;2.40;;
16577;SDS011;8401;52.528;13.340;2023-05-10T07:02:35;5.43;;;2.60;;
16577;SDS011;8401;52.528;13.340;2023-05-10T07:05:01;3.33;;;3.00;;
16577;SDS011;8401;52.528;13.340;2023-05-10T07:07:27;3.03;;;1.93;;
16577;SDS011;8401;52.528;13.340;2023-05-10T07:09:52;5.17;;;2.00;;
16577;SDS011;8401;52.528;13.340;2023-05-10T07:12:18;6.03;;;2.50;;
16577;SDS011;8401;52.528;13.340;2023-05-10T07:14:44;3.77;;;2.63;;
16577;SDS011;8401;52.528;13.340;2023-05-10T07:17:10;2.97;;;2.17;;
16577;SDS011;8401;52.528;13.340;2023-05-10T07:19:36;4.17;;;2.73;;
16577;SDS011;8401;52.528;13.340;2023-05-10T07:22:01;4.37;;;2.30;;
16577;SDS011;8401;52.528;13.340;2023-05-10T07:24:27;4.77;;;2.30;;
16577;SDS011;8401;52.528;13.340;2023-05-10T07:26:53;7.07;;;2.57;;
16577;SDS011;8401;52.528;13.340;2023-05-10T07:29:19;4.13;;;2.40;;
16577;SDS011;8401;52.528;13.340;2023-05-10T07:31:44;4.57;;;2.70;;
16577;SDS011;8401;52.528;13.340;2023-05-10T07:34:10;2.70;;;2.33;;
16577;SDS011;8401;52.528;13.340;2023-05-10T07:36:35;3.23;;;2.37;;
16577;SDS011;8401;52.528;13.340;2023-05-10T07:39:01;5.77;;;2.80;;
16577;SDS011;8401;52.528;13.340;2023-05-10T07:41:27;3.93;;;2.50;;
16577;SDS011;8401;52.528;13.340;2023-05-10T07:43:53;5.60;;;2.97;;
16577;SDS011;8401;52.528;13.340;2023-05-10T07:46:18;3.57;;;2.57;;
16577;SDS011;8401;52.528;13.340;2023-05-10T07:48:47;3.43;;;2.63;;
16577;SDS011;8401;52.528;13.340;2023-05-10T07:51:12;9.83;;;3.53;;
16577;SDS011;8401;52.528;13.340;2023-05-10T07:53:38;11.60;;;2.93;;
16577;SDS011;8401;52.528;13.340;2023-05-10T07:58:51;3.80;;;2.40;;
16577;SDS011;8401;52.528;13.340;2023-05-10T08:01:17;2.87;;;2.53;;
16577;SDS011;8401;52.528;13.340;2023-05-10T08:03:43;3.23;;;2.50;;
16577;SDS011;8401;52.528;13.340;2023-05-10T08:06:08;5.53;;;2.43;;
16577;SDS011;8401;52.528;13.340;2023-05-10T08:08:34;2.70;;;2.33;;
16577;SDS011;8401;52.528;13.340;2023-05-10T08:11:00;3.07;;;2.30;;
16577;SDS011;8401;52.528;13.340;2023-05-10T08:13:25;4.77;;;2.20;;
16577;SDS011;8401;52.528;13.340;2023-05-10T08:15:51;6.00;;;2.50;;
16577;SDS011;8401;52.528;13.340;2023-05-10T08:18:18;6.10;;;2.53;;
16577;SDS011;8401;52.528;13.340;2023-05-10T08:20:44;4.50;;;2.67;;
16577;SDS011;8401;52.528;13.340;2023-05-10T08:23:11;3.58;;;2.35;;
16577;SDS011;8401;52.528;13.340;2023-05-10T08:25:37;2.30;;;2.10;;
16577;SDS011;8401;52.528;13.340;2023-05-10T08:28:03;3.23;;;2.27;;
16577;SDS011;8401;52.528;13.340;2023-05-10T08:30:29;4.95;;;2.67;;
16577;SDS011;8401;52.528;13.340;2023-05-10T08:32:54;4.38;;;1.95;;
16577;SDS011;8401;52.528;13.340;2023-05-10T08:35:20;5.30;;;2.42;;
16577;SDS011;8401;52.528;13.340;2023-05-10T08:37:46;7.32;;;2.47;;
16577;SDS011;8401;52.528;13.340;2023-05-10T08:40:11;4.07;;;2.75;;
16577;SDS011;8401;52.528;13.340;2023-05-10T08:42:39;4.07;;;2.58;;
16577;SDS011;8401;52.528;13.340;2023-05-10T08:45:07;3.05;;;2.15;;
16577;SDS011;8401;52.528;13.340;2023-05-10T08:47:34;2.85;;;2.40;;
16577;SDS011;8401;52.528;13.340;2023-05-10T08:50:02;3.03;;;2.50;;
16577;SDS011;8401;52.528;13.340;2023-05-10T08:52:29;4.78;;;2.70;;
16577;SDS011;8401;52.528;13.340;2023-05-10T08:54:57;3.80;;;2.83;;
16577;SDS011;8401;52.528;13.340;2023-05-10T08:57:23;3.40;;;2.30;;
16577;SDS011;8401;52.528;13.340;2023-05-10T08:59:49;4.78;;;2.72;;
16577;SDS011;8401;52.528;13.340;2023-05-10T09:02:15;2.67;;;2.47;;
16577;SDS011;8401;52.528;13.340;2023-05-10T09:04:43;5.05;;;2.05;;
16577;SDS011;8401;52.528;13.340;2023-05-10T09:07:09;2.38;;;2.13;;
16577;SDS011;8401;52.528;13.340;2023-05-10T09:09:36;3.72;;;2.47;;
16577;SDS011;8401;52.528;13.340;2023-05-10T09:12:02;3.40;;;2.30;;
16577;SDS011;8401;52.528;13.340;2023-05-10T09:14:28;4.88;;;2.67;;
16577;SDS011;8401;52.528;13.340;2023-05-10T09:16:54;3.40;;;2.25;;
16577;SDS011;8401;52.528;13.340;2023-05-10T09:19:20;3.22;;;2.40;;
16577;SDS011;8401;52.528;13.340;2023-05-10T09:21:45;7.70;;;2.92;;
16577;SDS011;8401;52.528;13.340;2023-05-10T09:24:11;4.78;;;3.47;;
16577;SDS011;8401;52.528;13.340;2023-05-10T09:26:45;5.43;;;2.83;;
16577;SDS011;8401;52.528;13.340;2023-05-10T09:29:14;3.85;;;2.38;;
16577;SDS011;8401;52.528;13.340;2023-05-10T09:31:58;6.18;;;3.15;;
16577;SDS011;8401;52.528;13.340;2023-05-10T09:34:30;5.38;;;2.63;;
16577;SDS011;8401;52.528;13.340;2023-05-10T09:36:57;5.38;;;2.53;;
16577;SDS011;8401;52.528;13.340;2023-05-10T09:39:38;3.10;;;2.63;;
16577;SDS011;8401;52.528;13.340;2023-05-10T09:42:05;3.97;;;2.35;;
16577;SDS011;8401;52.528;13.340;2023-05-10T09:44:32;3.03;;;2.60;;
16577;SDS011;8401;52.528;13.340;2023-05-10T09:46:59;4.28;;;2.80;;
16577;SDS011;8401;52.528;13.340;2023-05-10T09:49:26;3.75;;;2.78;;
16577;SDS011;8401;52.528;13.340;2023-05-10T09:52:04;3.60;;;2.58;;
16577;SDS011;8401;52.528;13.340;2023-05-10T09:54:31;5.28;;;2.40;;
16577;SDS011;8401;52.528;13.340;2023-05-10T09:56:57;4.70;;;2.78;;
16577;SDS011;8401;52.528;13.340;2023-05-10T09:59:24;4.78;;;2.67;;
16577;SDS011;8401;52.528;13.340;2023-05-10T10:01:52;2.50;;;2.30;;
16577;SDS011;8401;52.528;13.340;2023-05-10T10:04:20;4.75;;;2.45;;
16577;SDS011;8401;52.528;13.340;2023-05-10T10:06:46;5.00;;;2.63;;
16577;SDS011;8401;52.528;13.340;2023-05-10T10:09:24;6.00;;;2.85;;
16577;SDS011;8401;52.528;13.340;2023-05-10T10:11:50;3.80;;;2.67;;
16577;SDS011;8401;52.528;13.340;2023-05-10T10:14:18;3.40;;;2.60;;
16577;SDS011;8401;52.528;13.340;2023-05-10T10:16:44;3.72;;;2.80;;
16577;SDS011;8401;52.528;13.340;2023-05-10T10:19:10;2.92;;;2.63;;
16577;SDS011;8401;52.528;13.340;2023-05-10T10:21:35;3.08;;;2.60;;
16577;SDS011;8401;52.528;13.340;2023-05-10T10:24:01;3.97;;;2.40;;
16577;SDS011;8401;52.528;13.340;2023-05-10T10:26:30;4.13;;;2.53;;
16577;SDS011;8401;52.528;13.340;2023-05-10T10:34:28;4.07;;;2.50;;
16577;SDS011;8401;52.528;13.340;2023-05-10T10:36:55;3.00;;;2.40;;
16577;SDS011;8401;52.528;13.340;2023-05-10T10:39:21;6.95;;;3.03;;
16577;SDS011;8401;52.528;13.340;2023-05-10T10:41:51;5.80;;;3.17;;
16577;SDS011;8401;52.528;13.340;2023-05-10T10:52:24;4.57;;;2.83;;
16577;SDS011;8401;52.528;13.340;2023-05-10T10:57:42;9.68;;;3.10;;
16577;SDS011;8401;52.528;13.340;2023-05-10T11:02:58;3.55;;;2.85;;
16577;SDS011;8401;52.528;13.340;2023-05-10T11:05:34;5.47;;;2.78;;
16577;SDS011;8401;52.528;13.340;2023-05-10T11:08:15;6.90;;;2.33;;
16577;SDS011;8401;52.528;13.340;2023-05-10T11:10:52;6.60;;;2.45;;
16577;SDS011;8401;52.528;13.340;2023-05-10T11:16:11;3.88;;;2.55;;
16577;SDS011;8401;52.528;13.340;2023-05-10T11:18:40;3.53;;;2.13;;
16577;SDS011;8401;52.528;13.340;2023-05-10T11:21:08;3.88;;;2.55;;
16577;SDS011;8401;52.528;13.340;2023-05-10T11:26:21;4.32;;;2.55;;
16577;SDS011;8401;52.528;13.340;2023-05-10T11:28:51;3.28;;;2.28;;
16577;SDS011;8401;52.528;13.340;2023-05-10T11:31:20;3.55;;;2.40;;
16577;SDS011;8401;52.528;13.340;2023-05-10T11:33:51;4.07;;;2.50;;
16577;SDS011;8401;52.528;13.340;2023-05-10T11:36:22;4.53;;;2.65;;
16577;SDS011;8401;52.528;13.340;2023-05-10T11:38:50;4.03;;;2.40;;
16577;SDS011;8401;52.528;13.340;2023-05-10T11:41:17;3.92;;;2.45;;
16577;SDS011;8401;52.528;13.340;2023-05-10T11:43:45;4.40;;;2.67;;
16577;SDS011;8401;52.528;13.340;2023-05-10T11:46:14;6.75;;;2.45;;
16577;SDS011;8401;52.528;13.340;2023-05-10T11:48:41;5.43;;;2.28;;
16577;SDS011;8401;52.528;13.340;2023-05-10T11:51:08;4.07;;;2.65;;
16577;SDS011;8401;52.528;13.340;2023-05-10T11:53:35;7.13;;;2.60;;
16577;SDS011;8401;52.528;13.340;2023-05-10T11:56:04;6.15;;;2.63;;
16577;SDS011;8401;52.528;13.340;2023-05-10T11:58:31;4.45;;;2.42;;
16577;SDS011;8401;52.528;13.340;2023-05-10T12:00:58;5.65;;;2.55;;
16577;SDS011;8401;52.528;13.340;2023-05-10T12:03:25;5.88;;;2.50;;
16577;SDS011;8401;52.528;13.340;2023-05-10T12:05:51;5.97;;;2.47;;
16577;SDS011;8401;52.528;13.340;2023-05-10T12:08:20;3.17;;;2.50;;
16577;SDS011;8401;52.528;13.340;2023-05-10T12:10:50;3.72;;;2.33;;
16577;SDS011;8401;52.528;13.340;2023-05-10T12:13:16;7.85;;;2.42;;
16577;SDS011;8401;52.528;13.340;2023-05-10T12:15:43;5.00;;;2.30;;
16577;SDS011;8401;52.528;13.340;2023-05-10T12:18:09;6.55;;;2.38;;
16577;SDS011;8401;52.528;13.340;2023-05-10T12:20:39;3.47;;;2.20;;
16577;SDS011;8401;52.528;13.340;2023-05-10T12:23:05;4.32;;;2.15;;
16577;SDS011;8401;52.528;13.340;2023-05-10T12:25:34;3.80;;;2.53;;
16577;SDS011;8401;52.528;13.340;2023-05-10T12:28:02;4.55;;;2.40;;
16577;SDS011;8401;52.528;13.340;2023-05-10T12:30:31;9.93;;;2.85;;
16577;SDS011;8401;52.528;13.340;2023-05-10T12:33:01;4.22;;;2.30;;
16577;SDS011;8401;52.528;13.340;2023-05-10T12:35:31;2.42;;;2.22;;
16577;SDS011;8401;52.528;13.340;2023-05-10T12:37:56;5.78;;;2.30;;
16577;SDS011;8401;52.528;13.340;2023-05-10T12:40:22;6.90;;;2.83;;
16577;SDS011;8401;52.528;13.340;2023-05-10T12:42:48;4.75;;;3.13;;
16577;SDS011;8401;52.528;13.340;2023-05-10T12:45:14;4.30;;;2.80;;
16577;SDS011;8401;52.528;13.340;2023-05-10T12:47:40;4.20;;;2.47;;
16577;SDS011;8401;52.528;13.340;2023-05-10T12:50:05;4.03;;;2.53;;
16577;SDS011;8401;52.528;13.340;2023-05-10T12:52:32;4.15;;;2.50;;
16577;SDS011;8401;52.528;13.340;2023-05-10T12:54:58;4.97;;;2.65;;
16577;SDS011;8401;52.528;13.340;2023-05-10T12:57:24;4.38;;;2.85;;
16577;SDS011;8401;52.528;13.340;2023-05-10T12:59:50;3.28;;;2.83;;
16577;SDS011;8401;52.528;13.340;2023-05-10T13:02:16;6.57;;;2.53;;
16577;SDS011;8401;52.528;13.340;2023-05-10T13:04:46;5.75;;;2.70;;
16577;SDS011;8401;52.528;13.340;2023-05-10T13:07:12;3.08;;;2.78;;
16577;SDS011;8401;52.528;13.340;2023-05-10T13:09:37;4.68;;;2.63;;
16577;SDS011;8401;52.528;13.340;2023-05-10T13:12:03;3.15;;;2.35;;
16577;SDS011;8401;52.528;13.340;2023-05-10T13:14:29;4.35;;;2.80;;
16577;SDS011;8401;52.528;13.340;2023-05-10T13:16:55;3.08;;;2.65;;
16577;SDS011;8401;52.528;13.340;2023-05-10T13:19:21;3.22;;;2.35;;
16577;SDS011;8401;52.528;13.340;2023-05-10T13:21:46;4.72;;;2.47;;
16577;SDS011;8401;52.528;13.340;2023-05-10T13:24:12;7.05;;;2.92;;
16577;SDS011;8401;52.528;13.340;2023-05-10T13:26:39;4.85;;;2.58;;
16577;SDS011;8401;52.528;13.340;2023-05-10T13:29:05;4.07;;;3.05;;
16577;SDS011;8401;52.528;13.340;2023-05-10T13:31:31;4.97;;;2.60;;
16577;SDS011;8401;52.528;13.340;2023-05-10T13:33:57;2.70;;;2.00;;
16577;SDS011;8401;52.528;13.340;2023-05-10T13:36:23;5.68;;;2.67;;
16577;SDS011;8401;52.528;13.340;2023-05-10T13:38:48;4.55;;;2.88;;
16577;SDS011;8401;52.528;13.340;2023-05-10T13:41:14;4.38;;;2.42;;
16577;SDS011;8401;52.528;13.340;2023-05-10T13:43:40;3.88;;;2.55;;
16577;SDS011;8401;52.528;13.340;2023-05-10T13:46:05;4.78;;;2.30;;
16577;SDS011;8401;52.528;13.340;2023-05-10T13:48:31;3.55;;;2.70;;
16577;SDS011;8401;52.528;13.340;2023-05-10T13:50:56;3.17;;;2.15;;
16577;SDS011;8401;52.528;13.340;2023-05-10T13:53:22;4.63;;;2.70;;
16577;SDS011;8401;52.528;13.340;2023-05-10T13:55:48;2.65;;;2.10;;
16577;SDS011;8401;52.528;13.340;2023-05-10T13:58:14;5.70;;;3.05;;
16577;SDS011;8401;52.528;13.340;2023-05-10T14:00:39;2.50;;;2.30;;
16577;SDS011;8401;52.528;13.340;2023-05-10T14:03:05;4.80;;;3.55;;
16577;SDS011;8401;52.528;13.340;2023-05-10T14:05:31;3.90;;;2.70;;
16577;SDS011;8401;52.528;13.340;2023-05-10T14:07:57;3.20;;;2.40;;
16577;SDS011;8401;52.528;13.340;2023-05-10T14:10:23;2.30;;;2.10;;
16577;SDS011;8401;52.528;13.340;2023-05-10T14:12:49;2.50;;;2.30;;
16577;SDS011;8401;52.528;13.340;2023-05-10T14:15:15;2.42;;;2.22;;
16577;SDS011;8401;52.528;13.340;2023-05-10T14:17:41;5.30;;;3.03;;
16577;SDS011;8401;52.528;13.340;2023-05-10T14:20:07;4.78;;;2.13;;
16577;SDS011;8401;52.528;13.340;2023-05-10T14:22:33;3.75;;;2.22;;
16577;SDS011;8401;52.528;13.340;2023-05-10T14:24:59;2.97;;;2.30;;
16577;SDS011;8401;52.528;13.340;2023-05-10T14:27:25;4.93;;;2.72;;
16577;SDS011;8401;52.528;13.340;2023-05-10T14:29:51;6.03;;;2.42;;
16577;SDS011;8401;52.528;13.340;2023-05-10T14:32:16;5.53;;;2.42;;
16577;SDS011;8401;52.528;13.340;2023-05-10T14:34:42;4.20;;;2.00;;
16577;SDS011;8401;52.528;13.340;2023-05-10T14:37:09;4.18;;;2.25;;
16577;SDS011;8401;52.528;13.340;2023-05-10T14:39:36;4.93;;;2.30;;
16577;SDS011;8401;52.528;13.340;2023-05-10T14:42:02;6.72;;;2.90;;
16577;SDS011;8401;52.528;13.340;2023-05-10T14:44:28;3.25;;;1.85;;
16577;SDS011;8401;52.528;13.340;2023-05-10T14:46:54;3.72;;;2.05;;
16577;SDS011;8401;52.528;13.340;2023-05-10T14:49:21;3.00;;;2.47;;
16577;SDS011;8401;52.528;13.340;2023-05-10T14:51:47;2.50;;;2.30;;
16577;SDS011;8401;52.528;13.340;2023-05-10T14:54:13;2.40;;;2.17;;
16577;SDS011;8401;52.528;13.340;2023-05-10T14:56:39;5.97;;;2.40;;
16577;SDS011;8401;52.528;13.340;2023-05-10T14:59:06;4.97;;;2.22;;
16577;SDS011;8401;52.528;13.340;2023-05-10T15:01:32;3.35;;;2.15;;
16577;SDS011;8401;52.528;13.340;2023-05-10T15:03:59;3.97;;;2.30;;
16577;SDS011;8401;52.528;13.340;2023-05-10T15:06:34;4.90;;;2.55;;
16577;SDS011;8401;52.528;13.340;2023-05-10T15:09:00;2.90;;;2.60;;
16577;SDS011;8401;52.528;13.340;2023-05-10T15:11:28;2.65;;;2.42;;
16577;SDS011;8401;52.528;13.340;2023-05-10T15:13:54;3.13;;;2.00;;
16577;SDS011;8401;52.528;13.340;2023-05-10T15:16:20;4.57;;;2.60;;
16577;SDS011;8401;52.528;13.340;2023-05-10T15:18:46;6.82;;;2.45;;
16577;SDS011;8401;52.528;13.340;2023-05-10T15:21:11;3.53;;;2.22;;
16577;SDS011;8401;52.528;13.340;2023-05-10T15:23:37;2.63;;;2.13;;
16577;SDS011;8401;52.528;13.340;2023-05-10T15:26:03;3.05;;;2.20;;
16577;SDS011;8401;52.528;13.340;2023-05-10T15:28:29;4.28;;;2.60;;
16577;SDS011;8401;52.528;13.340;2023-05-10T15:30:55;2.58;;;2.17;;
16577;SDS011;8401;52.528;13.340;2023-05-10T15:33:21;4.20;;;2.33;;
16577;SDS011;8401;52.528;13.340;2023-05-10T15:35:47;2.40;;;2.20;;